Impacts TAF Board INFO
FOR SITUATIONAL AWARENESS. NOT TO BE USED FOR FLIGHT PLANNING PURPOSES.
IDs:

KCLT - Charlotte/Douglas In, NC, US

Issued at 1728 UTC 18 Jan 2018
Updated at 1737 UTC 18 Jan 2018
Potential Impact None Slight Moderate High
Time1652Z 18/18Z 18/19Z 18/20Z 18/21Z 18/22Z 18/23Z 19/00Z 19/01Z 19/02Z 19/03Z 19/04Z 19/05Z 19/06Z>>
Type OBS PRVL PRVL PRVL PRVL PRVL PRVL PRVL PRVL PRVL PRVL PRVL PRVL PRVL
VIS 10 >6 >6 >6 >6 >6 >6 >6 >6 >6 >6 >6 >6 >6
CIG -- -- -- -- -- -- -- -- -- -- -- -- -- --
Cover CLR SKC SKC SKC SKC SKC SKC SKC SKC SKC SKC SKC SKC SKC
FltCat VFR VFR VFR VFR VFR VFR VFR VFR VFR VFR VFR VFR VFR VFR
WX -- -- -- -- -- -- -- -- -- -- -- -- -- --
WDir 300 250 250 250 250 250 250 250 230 230 230 230 230 230
WSpd 4 7 7 7 7 7 7 7 3 3 3 3 3 3
WGst -- -- -- -- -- -- -- -- -- -- -- -- -- --

Raw TAF
KCLT 181728Z 1818/1924 25007KT P6SM SKC
  FM190100 23003KT P6SM SKC
  FM191400 25005KT P6SM FEW250


Raw METAR
KCLT 181652Z 30004KT 10SM CLR 00/M10 A3035 RMK AO2 SLP284 T00001100
KCLT 181552Z 25005KT 10SM CLR M03/M09 A3037 RMK AO2 SLP291 T10281094
KCLT 181452Z 28008KT 10SM CLR M04/M12 A3036 RMK AO2 SLP289 T10441117 51018

METAR Board
Radar Display
Forecast Discussion

FOR SITUATIONAL AWARENESS. NOT TO BE USED FOR FLIGHT PLANNING PURPOSES.